createdAt,value
2023-03-10T00:01:20.282Z,1.10
2023-03-10T00:03:48.378Z,1.40
2023-03-10T00:06:16.849Z,0.90
2023-03-10T00:08:44.595Z,1.00
2023-03-10T00:11:12.634Z,1.37
2023-03-10T00:13:40.254Z,0.90
2023-03-10T00:16:08.289Z,0.90
2023-03-10T00:18:35.993Z,1.10
2023-03-10T00:21:03.483Z,1.20
2023-03-10T00:23:31.257Z,1.00
2023-03-10T00:26:00.018Z,1.20
2023-03-10T00:28:28.067Z,0.97
2023-03-10T00:30:59.642Z,1.30
2023-03-10T00:33:27.303Z,1.00
2023-03-10T00:36:20.961Z,0.97
2023-03-10T00:38:49.145Z,1.13
2023-03-10T00:41:18.557Z,0.93
2023-03-10T00:43:46.229Z,1.30
2023-03-10T00:46:14.197Z,1.07
2023-03-10T00:48:41.902Z,0.93
2023-03-10T00:51:09.938Z,1.00
2023-03-10T00:53:38.512Z,1.00
2023-03-10T00:56:06.096Z,1.00
2023-03-10T00:58:34.166Z,0.93
2023-03-10T01:01:02.047Z,0.87
2023-03-10T01:03:29.661Z,1.03
2023-03-10T01:05:57.551Z,0.80
2023-03-10T01:08:25.128Z,0.90
2023-03-10T01:10:52.651Z,0.97
2023-03-10T01:13:20.326Z,0.80
2023-03-10T01:15:48.002Z,1.30
2023-03-10T01:18:18.029Z,1.07
2023-03-10T01:20:45.548Z,1.30
2023-03-10T01:23:16.852Z,1.10
2023-03-10T01:25:44.573Z,1.13
2023-03-10T01:28:12.094Z,1.00
2023-03-10T01:30:40.412Z,1.30
2023-03-10T01:33:08.124Z,1.20
2023-03-10T01:35:35.838Z,1.60
2023-03-10T01:38:03.707Z,1.10
2023-03-10T01:40:31.316Z,1.20
2023-03-10T01:43:17.531Z,1.17
2023-03-10T01:45:47.937Z,1.10
2023-03-10T01:48:16.984Z,1.97
2023-03-10T01:50:46.040Z,1.43
2023-03-10T01:53:14.836Z,1.20
2023-03-10T01:55:44.285Z,1.17
2023-03-10T01:58:11.891Z,0.87
2023-03-10T02:00:41.181Z,1.10
2023-03-10T02:03:20.701Z,1.20
2023-03-10T02:05:50.699Z,1.30
2023-03-10T02:08:19.003Z,1.60
2023-03-10T02:10:46.979Z,1.20
2023-03-10T02:13:14.589Z,1.57
2023-03-10T02:15:42.208Z,1.33
2023-03-10T02:18:11.414Z,1.40
2023-03-10T02:20:44.738Z,1.30
2023-03-10T02:23:15.930Z,1.30
2023-03-10T02:25:54.669Z,1.60
2023-03-10T02:28:22.755Z,1.50
2023-03-10T02:30:50.920Z,1.40
2023-03-10T02:33:20.624Z,1.40
2023-03-10T02:35:48.213Z,1.30
2023-03-10T02:38:15.749Z,1.17
2023-03-10T02:40:49.889Z,1.40
2023-03-10T02:43:19.582Z,1.07
2023-03-10T02:45:47.857Z,1.10
2023-03-10T02:48:19.533Z,1.50
2023-03-10T02:50:48.030Z,1.23
2023-03-10T02:53:15.508Z,0.93
2023-03-10T02:55:43.099Z,0.90
2023-03-10T02:58:10.979Z,1.10
2023-03-10T03:00:39.479Z,1.13
2023-03-10T03:03:07.660Z,1.20
2023-03-10T03:05:35.492Z,1.13
2023-03-10T03:08:03.318Z,1.13
2023-03-10T03:10:31.227Z,1.00
2023-03-10T03:12:58.737Z,1.37
2023-03-10T03:15:26.352Z,1.20
2023-03-10T03:17:53.825Z,1.57
2023-03-10T03:20:21.925Z,1.27
2023-03-10T03:22:49.436Z,1.43
2023-03-10T03:25:18.082Z,1.97
2023-03-10T03:27:45.765Z,1.70
2023-03-10T03:30:15.566Z,1.90
2023-03-10T03:32:43.197Z,1.67
2023-03-10T03:35:12.060Z,1.97
2023-03-10T03:37:39.618Z,1.70
2023-03-10T03:40:07.579Z,2.17
2023-03-10T03:42:35.147Z,1.50
2023-03-10T03:45:02.708Z,1.90
2023-03-10T03:47:30.232Z,1.80
2023-03-10T03:49:57.725Z,1.53
2023-03-10T03:52:25.199Z,1.50
2023-03-10T03:54:52.855Z,2.00
2023-03-10T03:57:20.648Z,1.57
2023-03-10T03:59:48.193Z,1.80
2023-03-10T04:02:15.790Z,1.47
2023-03-10T04:04:43.444Z,1.60
2023-03-10T04:07:11.174Z,2.13
2023-03-10T04:09:40.058Z,1.67
2023-03-10T04:12:08.572Z,1.77
2023-03-10T04:14:36.572Z,1.87
2023-03-10T04:17:04.517Z,1.63
2023-03-10T04:19:32.146Z,1.70
2023-03-10T04:21:59.640Z,1.50
2023-03-10T04:24:27.249Z,1.90
2023-03-10T04:26:54.804Z,1.40
2023-03-10T04:29:22.395Z,1.30
2023-03-10T04:32:04.192Z,1.77
2023-03-10T04:34:32.859Z,1.40
2023-03-10T04:37:00.398Z,1.27
2023-03-10T04:39:27.994Z,1.50
2023-03-10T04:41:55.569Z,2.60
2023-03-10T04:44:30.882Z,1.50
2023-03-10T04:46:59.254Z,1.40
2023-03-10T04:49:26.868Z,1.33
2023-03-10T04:51:55.448Z,1.57
2023-03-10T04:54:22.940Z,1.47
2023-03-10T04:56:50.584Z,2.40
2023-03-10T04:59:18.053Z,1.40
2023-03-10T05:01:45.620Z,1.63
2023-03-10T05:04:13.329Z,1.70
2023-03-10T05:06:40.938Z,1.70
2023-03-10T05:09:08.480Z,1.70
2023-03-10T05:11:36.075Z,1.73
2023-03-10T05:14:03.602Z,1.40
2023-03-10T05:16:31.147Z,1.37
2023-03-10T05:18:58.771Z,2.03
2023-03-10T05:21:26.316Z,1.63
2023-03-10T05:23:53.874Z,2.07
2023-03-10T05:26:21.377Z,2.20
2023-03-10T05:28:49.051Z,2.80
2023-03-10T05:31:17.279Z,2.23
2023-03-10T05:33:44.975Z,1.50
2023-03-10T05:36:13.574Z,1.70
2023-03-10T05:38:41.134Z,1.57
2023-03-10T05:41:09.626Z,1.43
2023-03-10T05:43:38.093Z,2.17
2023-03-10T05:46:06.628Z,1.80
2023-03-10T05:48:34.306Z,2.17
2023-03-10T05:51:03.167Z,1.77
2023-03-10T05:53:32.694Z,1.73
2023-03-10T05:56:00.540Z,2.43
2023-03-10T05:58:28.179Z,2.03
2023-03-10T06:00:55.665Z,1.80
2023-03-10T06:03:23.349Z,2.33
2023-03-10T06:05:50.920Z,1.90
2023-03-10T06:08:18.553Z,2.13
2023-03-10T06:10:46.072Z,2.17
2023-03-10T06:13:13.633Z,2.47
2023-03-10T06:15:41.153Z,2.47
2023-03-10T06:18:08.707Z,2.40
2023-03-10T06:20:39.291Z,2.13
2023-03-10T06:23:06.858Z,2.00
2023-03-10T06:25:34.380Z,2.20
2023-03-10T06:28:01.926Z,2.13
2023-03-10T06:30:29.407Z,2.13
2023-03-10T06:32:57.026Z,2.07
2023-03-10T06:35:24.570Z,2.03
2023-03-10T06:37:52.092Z,2.07
2023-03-10T06:40:19.807Z,2.50
2023-03-10T06:42:47.389Z,2.00
2023-03-10T06:45:16.305Z,2.40
2023-03-10T06:47:44.654Z,1.90
2023-03-10T06:50:12.598Z,2.00
2023-03-10T06:52:40.322Z,3.00
2023-03-10T06:55:08.030Z,2.17
2023-03-10T06:57:35.584Z,2.03
2023-03-10T07:00:03.410Z,2.10
2023-03-10T07:02:30.996Z,1.80
2023-03-10T07:04:58.582Z,1.90
2023-03-10T07:07:26.171Z,2.20
2023-03-10T07:09:53.715Z,2.10
2023-03-10T07:12:21.318Z,2.40
2023-03-10T07:14:48.853Z,2.83
2023-03-10T07:17:16.431Z,1.60
2023-03-10T07:19:43.888Z,2.00
2023-03-10T07:22:11.516Z,2.10
2023-03-10T07:24:39.072Z,1.93
2023-03-10T07:27:06.918Z,1.90
2023-03-10T07:29:34.448Z,1.80
2023-03-10T07:32:02.030Z,2.07
2023-03-10T07:34:29.541Z,2.13
2023-03-10T07:36:57.143Z,2.17
2023-03-10T07:39:24.636Z,2.37
2023-03-10T07:41:52.206Z,2.30
2023-03-10T07:44:19.716Z,2.53
2023-03-10T07:46:47.316Z,2.00
2023-03-10T07:49:15.028Z,2.50
2023-03-10T07:51:42.625Z,1.90
2023-03-10T07:54:10.532Z,1.43
2023-03-10T07:56:38.073Z,1.80
2023-03-10T07:59:05.659Z,2.03
2023-03-10T08:01:33.262Z,2.00
2023-03-10T08:04:00.928Z,1.90
2023-03-10T08:06:29.378Z,2.23
2023-03-10T08:08:56.894Z,2.23
2023-03-10T08:11:24.713Z,2.20
2023-03-10T08:13:52.486Z,1.80
2023-03-10T08:16:21.502Z,2.10
2023-03-10T08:18:50.057Z,2.03
2023-03-10T08:21:17.646Z,2.37
2023-03-10T08:23:45.202Z,2.20
2023-03-10T08:26:16.773Z,2.50
2023-03-10T08:28:44.863Z,1.80
2023-03-10T08:31:13.955Z,1.90
2023-03-10T08:33:42.412Z,2.40
2023-03-10T08:36:14.432Z,2.83
2023-03-10T08:38:42.278Z,2.13
2023-03-10T08:41:12.904Z,2.03
2023-03-10T08:43:40.839Z,2.13
2023-03-10T08:46:09.095Z,3.80
2023-03-10T08:48:37.305Z,2.57
2023-03-10T08:51:05.383Z,2.40
2023-03-10T08:53:33.754Z,2.00
2023-03-10T08:56:01.368Z,2.70
2023-03-10T08:58:28.901Z,2.40
2023-03-10T09:00:56.422Z,2.20
2023-03-10T09:03:24.085Z,2.33
2023-03-10T09:05:51.737Z,2.13
2023-03-10T09:08:19.376Z,2.40
2023-03-10T09:10:46.907Z,3.13
2023-03-10T09:13:14.620Z,2.27
2023-03-10T09:15:42.561Z,2.30
2023-03-10T09:18:14.537Z,2.80
2023-03-10T09:20:42.224Z,2.43
2023-03-10T09:23:10.828Z,3.43
2023-03-10T09:25:38.354Z,2.60
2023-03-10T09:28:05.873Z,2.23
2023-03-10T09:30:33.429Z,2.20
2023-03-10T09:33:01.277Z,2.63
2023-03-10T09:35:28.953Z,2.17
2023-03-10T09:37:56.518Z,2.50
2023-03-10T09:40:24.549Z,2.90
2023-03-10T09:42:57.146Z,2.30
2023-03-10T09:45:24.769Z,2.27
2023-03-10T09:47:57.754Z,2.20
2023-03-10T09:50:43.741Z,2.53
2023-03-10T09:53:17.223Z,2.03
2023-03-10T09:55:48.447Z,2.10
2023-03-10T09:58:28.537Z,1.73
2023-03-10T10:00:56.289Z,2.57
2023-03-10T10:03:29.588Z,2.17
2023-03-10T10:05:58.285Z,1.83
2023-03-10T10:08:29.009Z,2.33
2023-03-10T10:10:58.192Z,2.57
2023-03-10T10:13:28.146Z,2.87
2023-03-10T10:16:24.449Z,2.10
2023-03-10T10:19:03.696Z,2.07
2023-03-10T10:22:00.571Z,2.43
2023-03-10T10:24:28.352Z,1.90
2023-03-10T10:26:55.847Z,1.77
2023-03-10T10:29:27.601Z,2.20
2023-03-10T10:32:04.331Z,2.63
2023-03-10T10:34:32.620Z,2.10
2023-03-10T10:37:00.626Z,2.50
2023-03-10T10:39:29.891Z,1.47
2023-03-10T10:42:12.956Z,2.17
2023-03-10T10:44:41.806Z,2.27
2023-03-10T10:47:19.292Z,1.60
2023-03-10T10:49:46.879Z,1.53
2023-03-10T10:52:22.371Z,1.30
2023-03-10T10:54:54.778Z,1.53
2023-03-10T10:57:24.220Z,1.80
2023-03-10T10:59:52.220Z,1.73
2023-03-10T11:02:22.791Z,1.43
2023-03-10T11:04:50.570Z,2.37
2023-03-10T11:07:20.210Z,1.60
2023-03-10T11:09:48.008Z,1.50
2023-03-10T11:12:18.669Z,1.03
2023-03-10T11:14:59.574Z,1.20
2023-03-10T11:17:39.489Z,1.20
2023-03-10T11:20:07.144Z,1.37
2023-03-10T11:22:40.080Z,1.43
2023-03-10T11:25:22.600Z,1.13
2023-03-10T11:27:56.107Z,1.40
2023-03-10T11:30:29.439Z,1.37
2023-03-10T11:32:59.822Z,1.30
2023-03-10T11:35:41.126Z,1.00
2023-03-10T11:38:27.441Z,1.10
2023-03-10T11:40:56.340Z,1.00
2023-03-10T11:43:38.985Z,1.20
2023-03-10T11:46:11.099Z,1.30
2023-03-10T11:48:38.710Z,1.07
2023-03-10T11:51:06.639Z,1.10
2023-03-10T11:53:53.550Z,1.33
2023-03-10T11:56:22.798Z,1.27
2023-03-10T11:58:58.802Z,1.20
2023-03-10T12:01:30.984Z,1.17
2023-03-10T12:04:06.948Z,1.63
2023-03-10T12:06:45.226Z,0.90
2023-03-10T12:09:30.957Z,1.33
2023-03-10T12:11:58.590Z,1.10
2023-03-10T12:14:26.354Z,1.27
2023-03-10T12:16:54.675Z,1.17
2023-03-10T12:19:22.296Z,0.90
2023-03-10T12:22:08.417Z,1.30
2023-03-10T12:24:46.283Z,0.87
2023-03-10T12:27:13.958Z,1.40
2023-03-10T12:29:42.221Z,1.30
2023-03-10T12:32:28.624Z,0.80
2023-03-10T12:35:22.774Z,1.20
2023-03-10T12:37:50.382Z,0.80
2023-03-10T12:40:41.227Z,0.90
2023-03-10T12:43:27.606Z,0.77
2023-03-10T12:45:59.037Z,0.90
2023-03-10T12:48:26.877Z,0.90
2023-03-10T12:50:58.115Z,1.00
2023-03-10T12:53:31.098Z,0.90
2023-03-10T12:56:07.715Z,0.87
2023-03-10T12:58:36.510Z,0.77
2023-03-10T13:01:06.666Z,0.80
2023-03-10T13:03:41.942Z,0.90
2023-03-10T13:06:12.644Z,0.87
2023-03-10T13:08:40.156Z,0.90
2023-03-10T13:11:13.788Z,0.90
2023-03-10T13:13:41.776Z,1.00
2023-03-10T13:16:09.374Z,1.00
2023-03-10T13:18:37.066Z,0.80
2023-03-10T13:21:05.855Z,0.97
2023-03-10T13:23:34.349Z,0.73
2023-03-10T13:26:03.471Z,0.70
2023-03-10T13:28:32.772Z,1.17
2023-03-10T13:31:09.612Z,1.10
2023-03-10T13:33:50.227Z,1.20
2023-03-10T13:36:24.661Z,0.97
2023-03-10T13:38:52.252Z,0.87
2023-03-10T13:41:19.852Z,0.80
2023-03-10T13:43:47.723Z,0.90
2023-03-10T13:46:16.612Z,1.00
2023-03-10T13:48:44.515Z,1.17
2023-03-10T13:51:15.089Z,1.10
2023-03-10T13:53:42.653Z,1.20
2023-03-10T13:56:30.427Z,1.30
2023-03-10T13:58:58.648Z,1.10
2023-03-10T14:01:31.004Z,1.10
2023-03-10T14:04:00.728Z,0.77
2023-03-10T14:06:29.406Z,0.70
2023-03-10T14:08:57.059Z,0.60
2023-03-10T14:11:44.974Z,0.80
2023-03-10T14:14:12.986Z,1.10
2023-03-10T14:16:47.658Z,0.80
2023-03-10T14:19:35.290Z,0.90
2023-03-10T14:22:02.860Z,0.80
2023-03-10T14:24:30.552Z,0.80
2023-03-10T14:27:01.434Z,0.83
2023-03-10T14:29:28.997Z,1.03
2023-03-10T14:31:56.527Z,1.10
2023-03-10T14:34:24.127Z,1.03
2023-03-10T14:36:51.620Z,1.17
2023-03-10T14:39:19.217Z,1.17
2023-03-10T14:41:47.156Z,1.23
2023-03-10T14:44:14.731Z,1.00
2023-03-10T14:46:42.542Z,1.10
2023-03-10T14:49:13.544Z,1.50
2023-03-10T14:51:41.063Z,1.63
2023-03-10T14:54:16.940Z,1.53
2023-03-10T14:56:44.563Z,1.73
2023-03-10T14:59:16.085Z,1.70
2023-03-10T15:01:43.836Z,2.23
2023-03-10T15:04:17.515Z,2.20
2023-03-10T15:06:45.456Z,1.80
2023-03-10T15:09:13.095Z,2.10
2023-03-10T15:11:41.045Z,2.20
2023-03-10T15:14:18.985Z,1.93
2023-03-10T15:16:46.606Z,1.73
2023-03-10T15:19:24.601Z,1.80
2023-03-10T15:21:52.584Z,1.90
2023-03-10T15:24:20.437Z,1.90
2023-03-10T15:26:48.053Z,2.00
2023-03-10T15:29:16.820Z,1.90
2023-03-10T15:31:44.594Z,1.83
2023-03-10T15:34:12.252Z,1.70
2023-03-10T15:36:39.875Z,1.90
2023-03-10T15:39:07.568Z,1.50
2023-03-10T15:41:38.615Z,1.50
2023-03-10T15:44:06.992Z,1.70
2023-03-10T15:46:34.639Z,1.60
2023-03-10T15:49:02.779Z,1.30
2023-03-10T15:51:30.617Z,1.50
2023-03-10T15:53:58.422Z,0.87
2023-03-10T15:56:26.227Z,0.77
2023-03-10T15:58:53.881Z,0.70
2023-03-10T16:01:21.491Z,0.70
2023-03-10T16:03:49.048Z,0.80
2023-03-10T16:06:16.562Z,1.00
2023-03-10T16:08:44.197Z,0.80
2023-03-10T16:11:20.536Z,0.70
2023-03-10T16:13:48.510Z,0.90
2023-03-10T16:16:20.244Z,1.07
2023-03-10T16:18:48.465Z,0.90
2023-03-10T16:21:17.907Z,1.27
2023-03-10T16:23:46.180Z,1.13
2023-03-10T16:26:13.705Z,1.47
2023-03-10T16:28:42.941Z,1.10
2023-03-10T16:31:11.213Z,0.90
2023-03-10T16:33:38.950Z,1.67
2023-03-10T16:36:07.919Z,1.27
2023-03-10T16:38:36.175Z,1.43
2023-03-10T16:41:04.018Z,1.37
2023-03-10T16:43:34.878Z,0.93
2023-03-10T16:46:13.325Z,1.30
2023-03-10T16:48:42.336Z,1.70
2023-03-10T16:51:30.245Z,1.47
2023-03-10T16:53:59.336Z,1.60
2023-03-10T16:56:27.528Z,2.50
2023-03-10T16:58:55.434Z,2.10
2023-03-10T17:01:23.106Z,2.10
2023-03-10T17:03:54.562Z,2.17
2023-03-10T17:06:24.299Z,2.07
2023-03-10T17:08:52.948Z,2.20
2023-03-10T17:11:21.856Z,2.40
2023-03-10T17:13:49.873Z,2.00
2023-03-10T17:16:17.907Z,2.10
2023-03-10T17:18:45.853Z,2.33
2023-03-10T17:21:14.961Z,2.10
2023-03-10T17:23:42.762Z,1.70
2023-03-10T17:26:11.038Z,2.20
2023-03-10T17:28:39.440Z,2.07
2023-03-10T17:31:10.729Z,2.90
2023-03-10T17:33:38.452Z,2.73
2023-03-10T17:36:07.086Z,2.97
2023-03-10T17:38:34.802Z,2.37
2023-03-10T17:41:06.321Z,3.00
2023-03-10T17:43:34.786Z,3.30
2023-03-10T17:46:03.666Z,2.23
2023-03-10T17:48:31.429Z,2.77
2023-03-10T17:50:59.048Z,2.40
2023-03-10T17:53:27.445Z,2.67
2023-03-10T17:55:54.984Z,2.43
2023-03-10T17:58:23.324Z,2.60
2023-03-10T18:00:50.842Z,3.03
2023-03-10T18:03:18.419Z,2.27
2023-03-10T18:05:46.076Z,2.50
2023-03-10T18:08:14.060Z,2.37
2023-03-10T18:10:41.861Z,2.97
2023-03-10T18:13:11.873Z,2.53
2023-03-10T18:15:39.480Z,2.83
2023-03-10T18:18:07.034Z,2.77
2023-03-10T18:20:34.594Z,2.73
2023-03-10T18:23:02.110Z,2.77
2023-03-10T18:25:29.680Z,3.30
2023-03-10T18:27:57.204Z,2.77
2023-03-10T18:30:24.798Z,3.10
2023-03-10T18:32:52.511Z,3.43
2023-03-10T18:35:20.074Z,3.27
2023-03-10T18:37:47.716Z,3.93
2023-03-10T18:40:15.928Z,3.80
2023-03-10T18:42:43.473Z,4.00
2023-03-10T18:45:11.524Z,3.67
2023-03-10T18:47:39.032Z,4.90
2023-03-10T18:50:06.828Z,4.07
2023-03-10T18:52:34.375Z,4.77
2023-03-10T18:55:01.941Z,4.67
2023-03-10T18:57:29.404Z,3.97
2023-03-10T18:59:57.007Z,5.30
2023-03-10T19:02:24.552Z,4.40
2023-03-10T19:04:52.186Z,5.07
2023-03-10T19:07:19.853Z,4.57
2023-03-10T19:09:47.679Z,3.23
2023-03-10T19:12:15.202Z,3.03
2023-03-10T19:14:42.840Z,3.03
2023-03-10T19:17:10.307Z,3.23
2023-03-10T19:19:37.936Z,3.27
2023-03-10T19:22:05.482Z,3.67
2023-03-10T19:24:33.027Z,3.23
2023-03-10T19:27:00.492Z,3.83
2023-03-10T19:29:28.057Z,3.20
2023-03-10T19:31:55.554Z,3.00
2023-03-10T19:34:23.324Z,3.37
2023-03-10T19:36:50.869Z,2.80
2023-03-10T19:39:18.443Z,3.10
2023-03-10T19:41:45.990Z,2.83
2023-03-10T19:44:13.526Z,2.80
2023-03-10T19:46:41.059Z,2.23
2023-03-10T19:49:08.667Z,2.70
2023-03-10T19:51:36.149Z,2.97
2023-03-10T19:54:03.680Z,2.70
2023-03-10T19:56:31.196Z,2.60
2023-03-10T19:58:58.791Z,2.20
2023-03-10T20:01:27.019Z,3.13
2023-03-10T20:03:56.064Z,2.73
2023-03-10T20:06:24.056Z,2.57
2023-03-10T20:08:52.051Z,2.83
2023-03-10T20:11:19.914Z,2.30
2023-03-10T20:13:47.651Z,2.50
2023-03-10T20:16:16.042Z,2.80
2023-03-10T20:18:43.660Z,3.67
2023-03-10T20:21:11.174Z,3.70
2023-03-10T20:23:38.762Z,4.43
2023-03-10T20:26:07.364Z,4.43
2023-03-10T20:28:35.772Z,5.70
2023-03-10T20:31:03.607Z,6.27
2023-03-10T20:33:31.208Z,4.83
2023-03-10T20:35:58.753Z,6.53
2023-03-10T20:38:26.350Z,6.43
2023-03-10T20:40:53.849Z,6.53
2023-03-10T20:43:21.422Z,6.23
2023-03-10T20:45:51.287Z,6.90
2023-03-10T20:48:18.904Z,6.10
2023-03-10T20:50:46.421Z,6.50
2023-03-10T20:53:14.001Z,6.47
2023-03-10T20:55:42.095Z,6.80
2023-03-10T20:58:09.592Z,6.73
2023-03-10T21:00:37.116Z,7.17
2023-03-10T21:03:04.870Z,5.77
2023-03-10T21:05:32.412Z,6.07
2023-03-10T21:07:59.932Z,5.07
2023-03-10T21:10:27.485Z,4.83
2023-03-10T21:12:55.127Z,4.47
2023-03-10T21:15:23.020Z,5.20
2023-03-10T21:17:50.726Z,4.67
2023-03-10T21:20:20.313Z,5.23
2023-03-10T21:22:48.128Z,5.47
2023-03-10T21:25:17.518Z,5.00
2023-03-10T21:27:47.397Z,4.50
2023-03-10T21:30:15.047Z,4.03
2023-03-10T21:32:42.641Z,4.00
2023-03-10T21:35:10.596Z,3.40
2023-03-10T21:37:40.130Z,4.50
2023-03-10T21:40:09.617Z,3.13
2023-03-10T21:42:37.634Z,3.83
2023-03-10T21:45:06.091Z,4.27
2023-03-10T21:47:33.602Z,3.50
2023-03-10T21:50:01.201Z,4.70
2023-03-10T21:52:28.759Z,3.80
2023-03-10T21:54:56.303Z,3.27
2023-03-10T21:57:23.815Z,3.33
2023-03-10T21:59:51.412Z,3.20
2023-03-10T22:02:27.005Z,3.80
2023-03-10T22:04:55.105Z,3.13
2023-03-10T22:07:22.785Z,2.57
2023-03-10T22:09:50.401Z,2.10
2023-03-10T22:12:21.471Z,2.10
2023-03-10T22:14:49.002Z,1.90
2023-03-10T22:17:16.656Z,2.83
2023-03-10T22:19:44.362Z,2.40
2023-03-10T22:22:11.888Z,2.40
2023-03-10T22:24:39.527Z,2.00
2023-03-10T22:27:07.034Z,2.53
2023-03-10T22:29:34.599Z,1.73
2023-03-10T22:32:02.110Z,1.87
2023-03-10T22:34:29.722Z,2.10
2023-03-10T22:36:57.290Z,2.80
2023-03-10T22:39:24.846Z,2.70
2023-03-10T22:41:52.789Z,2.30
2023-03-10T22:44:20.299Z,1.80
2023-03-10T22:46:48.081Z,1.97
2023-03-10T22:49:15.715Z,1.90
2023-03-10T22:51:43.255Z,2.67
2023-03-10T22:54:10.831Z,2.10
2023-03-10T22:56:38.310Z,2.30
2023-03-10T22:59:05.857Z,2.67
2023-03-10T23:01:33.499Z,2.03
2023-03-10T23:04:01.152Z,2.10
2023-03-10T23:06:28.687Z,2.33
2023-03-10T23:08:56.798Z,2.20
2023-03-10T23:11:24.306Z,1.70
2023-03-10T23:13:51.879Z,2.10
2023-03-10T23:16:19.523Z,1.97
2023-03-10T23:18:47.308Z,2.77
2023-03-10T23:21:15.202Z,2.30
2023-03-10T23:23:42.818Z,2.43
2023-03-10T23:26:11.352Z,2.87
2023-03-10T23:28:39.363Z,1.77
2023-03-10T23:31:07.616Z,2.23
2023-03-10T23:33:35.211Z,2.07
2023-03-10T23:36:02.774Z,2.27
2023-03-10T23:38:30.395Z,1.50
2023-03-10T23:40:57.862Z,2.33
2023-03-10T23:43:25.461Z,2.10
2023-03-10T23:45:53.317Z,2.13
2023-03-10T23:48:20.940Z,2.67
2023-03-10T23:50:48.976Z,2.17
2023-03-10T23:53:17.482Z,1.97
2023-03-10T23:55:46.042Z,2.60
2023-03-10T23:58:14.650Z,2.17
